sensor_id;sensor_type;location;lat;lon;timestamp;pressure;altitude;pressure_sealevel;temperature;humidity
49835;BME280;35729;52.090;13.162;2022-12-15T00:01:32;99938.59;;;-11.49;87.88
49835;BME280;35729;52.090;13.162;2022-12-15T00:04:20;99938.44;;;-11.52;88.04
49835;BME280;35729;52.090;13.162;2022-12-15T00:07:03;99941.03;;;-11.51;88.07
49835;BME280;35729;52.090;13.162;2022-12-15T00:09:44;99946.97;;;-11.50;88.09
49835;BME280;35729;52.090;13.162;2022-12-15T00:12:25;99942.78;;;-11.50;88.09
49835;BME280;35729;52.090;13.162;2022-12-15T00:15:07;99946.97;;;-11.50;88.11
49835;BME280;35729;52.090;13.162;2022-12-15T00:17:48;99942.69;;;-11.51;88.17
49835;BME280;35729;52.090;13.162;2022-12-15T00:20:28;99946.97;;;-11.50;88.29
49835;BME280;35729;52.090;13.162;2022-12-15T00:23:12;99962.88;;;-11.53;88.28
49835;BME280;35729;52.090;13.162;2022-12-15T00:25:53;99973.06;;;-11.51;88.20
49835;BME280;35729;52.090;13.162;2022-12-15T00:28:34;99976.41;;;-11.52;88.22
49835;BME280;35729;52.090;13.162;2022-12-15T00:31:14;99976.31;;;-11.54;88.48
49835;BME280;35729;52.090;13.162;2022-12-15T00:33:55;99983.81;;;-11.55;88.26
49835;BME280;35729;52.090;13.162;2022-12-15T00:36:36;99984.59;;;-11.56;88.31
49835;BME280;35729;52.090;13.162;2022-12-15T00:39:20;99976.94;;;-11.58;88.42
49835;BME280;35729;52.090;13.162;2022-12-15T00:41:48;99972.56;;;-11.60;88.29
49835;BME280;35729;52.090;13.162;2022-12-15T00:44:16;99980.16;;;-11.60;88.23
49835;BME280;35729;52.090;13.162;2022-12-15T00:46:45;99984.25;;;-11.63;88.47
49835;BME280;35729;52.090;13.162;2022-12-15T00:49:20;99973.22;;;-11.65;88.44
49835;BME280;35729;52.090;13.162;2022-12-15T00:52:01;99980.81;;;-11.65;88.48
49835;BME280;35729;52.090;13.162;2022-12-15T00:54:44;99975.75;;;-11.65;88.48
49835;BME280;35729;52.090;13.162;2022-12-15T00:57:25;99979.84;;;-11.67;88.43
49835;BME280;35729;52.090;13.162;2022-12-15T01:00:08;99975.66;;;-11.66;88.55
49835;BME280;35729;52.090;13.162;2022-12-15T01:02:49;99971.31;;;-11.69;88.42
49835;BME280;35729;52.090;13.162;2022-12-15T01:05:32;99976.38;;;-11.69;88.43
49835;BME280;35729;52.090;13.162;2022-12-15T01:08:13;99973.72;;;-11.70;88.51
49835;BME280;35729;52.090;13.162;2022-12-15T01:10:59;99977.94;;;-11.71;88.48
49835;BME280;35729;52.090;13.162;2022-12-15T01:13:40;99974.44;;;-11.73;88.36
49835;BME280;35729;52.090;13.162;2022-12-15T01:16:21;99975.31;;;-11.72;88.52
49835;BME280;35729;52.090;13.162;2022-12-15T01:19:01;99967.47;;;-11.77;88.41
49835;BME280;35729;52.090;13.162;2022-12-15T01:21:42;99971.91;;;-11.73;88.32
49835;BME280;35729;52.090;13.162;2022-12-15T01:24:11;99974.34;;;-11.74;88.33
49835;BME280;35729;52.090;13.162;2022-12-15T01:26:42;99974.34;;;-11.74;88.40
49835;BME280;35729;52.090;13.162;2022-12-15T01:29:10;99970.06;;;-11.75;88.22
49835;BME280;35729;52.090;13.162;2022-12-15T01:31:39;99969.22;;;-11.76;88.17
49835;BME280;35729;52.090;13.162;2022-12-15T01:34:08;99969.03;;;-11.79;88.27
49835;BME280;35729;52.090;13.162;2022-12-15T01:36:37;99974.09;;;-11.79;88.20
49835;BME280;35729;52.090;13.162;2022-12-15T01:39:05;99968.16;;;-11.80;88.08
49835;BME280;35729;52.090;13.162;2022-12-15T01:41:33;99972.38;;;-11.80;88.07
49835;BME280;35729;52.090;13.162;2022-12-15T01:44:19;99970.50;;;-11.83;88.02
49835;BME280;35729;52.090;13.162;2022-12-15T01:46:49;99966.84;;;-11.88;87.90
49835;BME280;35729;52.090;13.162;2022-12-15T01:49:22;99971.06;;;-11.88;88.22
49835;BME280;35729;52.090;13.162;2022-12-15T01:51:55;99978.50;;;-11.91;88.24
49835;BME280;35729;52.090;13.162;2022-12-15T01:54:28;99970.72;;;-11.95;88.19
49835;BME280;35729;52.090;13.162;2022-12-15T01:57:00;99978.97;;;-11.99;88.13
49835;BME280;35729;52.090;13.162;2022-12-15T01:59:34;99977.13;;;-12.01;87.73
49835;BME280;35729;52.090;13.162;2022-12-15T02:02:04;99981.22;;;-12.03;87.79
49835;BME280;35729;52.090;13.162;2022-12-15T02:04:33;99979.13;;;-12.10;87.91
49835;BME280;35729;52.090;13.162;2022-12-15T02:07:15;99990.22;;;-12.08;87.92
49835;BME280;35729;52.090;13.162;2022-12-15T02:09:46;99993.34;;;-12.13;87.93
49835;BME280;35729;52.090;13.162;2022-12-15T02:12:23;99995.88;;;-12.13;87.85
49835;BME280;35729;52.090;13.162;2022-12-15T02:15:07;99997.44;;;-12.15;87.89
49835;BME280;35729;52.090;13.162;2022-12-15T02:17:46;100004.88;;;-12.18;87.59
49835;BME280;35729;52.090;13.162;2022-12-15T02:20:36;100009.84;;;-12.19;87.57
49835;BME280;35729;52.090;13.162;2022-12-15T02:26:44;100014.63;;;-12.24;87.79
49835;BME280;35729;52.090;13.162;2022-12-15T02:29:36;100006.97;;;-12.25;87.88
49835;BME280;35729;52.090;13.162;2022-12-15T02:32:11;100007.81;;;-12.25;87.87
49835;BME280;35729;52.090;13.162;2022-12-15T02:34:43;100020.47;;;-12.25;87.94
49835;BME280;35729;52.090;13.162;2022-12-15T02:37:15;100017.16;;;-12.24;87.98
49835;BME280;35729;52.090;13.162;2022-12-15T02:39:45;100032.41;;;-12.22;87.90
49835;BME280;35729;52.090;13.162;2022-12-15T02:42:13;100031.56;;;-12.23;87.83
49835;BME280;35729;52.090;13.162;2022-12-15T02:44:46;100034.94;;;-12.22;87.65
49835;BME280;35729;52.090;13.162;2022-12-15T02:47:19;100041.66;;;-12.23;87.62
49835;BME280;35729;52.090;13.162;2022-12-15T02:50:06;100044.09;;;-12.24;87.83
49835;BME280;35729;52.090;13.162;2022-12-15T02:52:48;100039.03;;;-12.24;88.10
49835;BME280;35729;52.090;13.162;2022-12-15T02:55:26;100036.50;;;-12.24;87.99
49835;BME280;35729;52.090;13.162;2022-12-15T02:58:00;100036.59;;;-12.23;88.17
49835;BME280;35729;52.090;13.162;2022-12-15T03:00:32;100046.81;;;-12.21;88.15
49835;BME280;35729;52.090;13.162;2022-12-15T03:03:06;100049.50;;;-12.18;88.13
49835;BME280;35729;52.090;13.162;2022-12-15T03:05:35;100056.31;;;-12.17;88.39
49835;BME280;35729;52.090;13.162;2022-12-15T03:08:03;100049.63;;;-12.17;88.28
49835;BME280;35729;52.090;13.162;2022-12-15T03:10:33;100055.53;;;-12.16;88.09
49835;BME280;35729;52.090;13.162;2022-12-15T03:13:02;100054.66;;;-12.17;88.15
49835;BME280;35729;52.090;13.162;2022-12-15T03:15:30;100058.84;;;-12.17;88.23
49835;BME280;35729;52.090;13.162;2022-12-15T03:17:59;100061.38;;;-12.17;88.29
49835;BME280;35729;52.090;13.162;2022-12-15T03:20:30;100064.78;;;-12.17;88.39
49835;BME280;35729;52.090;13.162;2022-12-15T03:22:58;100071.47;;;-12.17;88.24
49835;BME280;35729;52.090;13.162;2022-12-15T03:25:27;100071.31;;;-12.20;88.23
49835;BME280;35729;52.090;13.162;2022-12-15T03:27:55;100079.97;;;-12.17;88.45
49835;BME280;35729;52.090;13.162;2022-12-15T03:30:24;100072.25;;;-12.18;88.41
49835;BME280;35729;52.090;13.162;2022-12-15T03:32:52;100068.16;;;-12.16;88.56
49835;BME280;35729;52.090;13.162;2022-12-15T03:35:21;100069.84;;;-12.17;88.46
49835;BME280;35729;52.090;13.162;2022-12-15T03:37:52;100063.97;;;-12.16;88.36
49835;BME280;35729;52.090;13.162;2022-12-15T03:40:20;100082.66;;;-12.14;88.48
49835;BME280;35729;52.090;13.162;2022-12-15T03:42:49;100089.47;;;-12.13;88.58
49835;BME280;35729;52.090;13.162;2022-12-15T03:45:19;100092.94;;;-12.10;88.47
49835;BME280;35729;52.090;13.162;2022-12-15T03:47:48;100090.53;;;-12.09;88.79
49835;BME280;35729;52.090;13.162;2022-12-15T03:50:19;100085.53;;;-12.07;88.66
49835;BME280;35729;52.090;13.162;2022-12-15T03:52:55;100091.56;;;-12.05;88.74
49835;BME280;35729;52.090;13.162;2022-12-15T03:55:25;100098.34;;;-12.04;88.68
49835;BME280;35729;52.090;13.162;2022-12-15T03:57:54;100101.84;;;-12.02;88.70
49835;BME280;35729;52.090;13.162;2022-12-15T04:00:23;100096.09;;;-12.00;88.65
49835;BME280;35729;52.090;13.162;2022-12-15T04:02:52;100100.38;;;-11.99;88.58
49835;BME280;35729;52.090;13.162;2022-12-15T04:05:23;100108.91;;;-11.97;88.67
49835;BME280;35729;52.090;13.162;2022-12-15T04:07:57;100114.06;;;-11.95;88.95
49835;BME280;35729;52.090;13.162;2022-12-15T04:10:27;100134.38;;;-11.93;88.86
49835;BME280;35729;52.090;13.162;2022-12-15T04:12:56;100130.97;;;-11.94;88.90
49835;BME280;35729;52.090;13.162;2022-12-15T04:15:25;100132.00;;;-11.90;88.99
49835;BME280;35729;52.090;13.162;2022-12-15T04:17:54;100129.59;;;-11.89;89.07
49835;BME280;35729;52.090;13.162;2022-12-15T04:20:23;100131.31;;;-11.88;88.84
49835;BME280;35729;52.090;13.162;2022-12-15T04:22:49;100134.03;;;-11.85;88.87
49835;BME280;35729;52.090;13.162;2022-12-15T04:25:22;100127.31;;;-11.84;89.15
49835;BME280;35729;52.090;13.162;2022-12-15T04:28:04;100138.41;;;-11.82;89.28
49835;BME280;35729;52.090;13.162;2022-12-15T04:30:52;100139.25;;;-11.82;89.06
49835;BME280;35729;52.090;13.162;2022-12-15T04:33:34;100144.44;;;-11.80;89.24
49835;BME280;35729;52.090;13.162;2022-12-15T04:36:16;100143.63;;;-11.79;89.31
49835;BME280;35729;52.090;13.162;2022-12-15T04:38:57;100143.75;;;-11.77;89.21
49835;BME280;35729;52.090;13.162;2022-12-15T04:41:41;100138.75;;;-11.76;89.56
49835;BME280;35729;52.090;13.162;2022-12-15T04:44:22;100143.03;;;-11.75;89.54
49835;BME280;35729;52.090;13.162;2022-12-15T04:47:03;100135.47;;;-11.75;89.47
49835;BME280;35729;52.090;13.162;2022-12-15T04:49:44;100133.63;;;-11.77;89.64
49835;BME280;35729;52.090;13.162;2022-12-15T04:52:26;100144.06;;;-11.71;89.78
49835;BME280;35729;52.090;13.162;2022-12-15T04:55:07;100142.50;;;-11.69;89.72
49835;BME280;35729;52.090;13.162;2022-12-15T04:57:52;100157.78;;;-11.68;89.84
49835;BME280;35729;52.090;13.162;2022-12-15T05:00:32;100151.06;;;-11.67;89.82
49835;BME280;35729;52.090;13.162;2022-12-15T05:03:13;100155.44;;;-11.65;89.46
49835;BME280;35729;52.090;13.162;2022-12-15T05:05:54;100163.91;;;-11.64;89.74
49835;BME280;35729;52.090;13.162;2022-12-15T05:08:36;100156.31;;;-11.64;89.63
49835;BME280;35729;52.090;13.162;2022-12-15T05:11:17;100165.50;;;-11.66;89.72
49835;BME280;35729;52.090;13.162;2022-12-15T05:14:01;100169.94;;;-11.62;90.39
49835;BME280;35729;52.090;13.162;2022-12-15T05:16:42;100179.16;;;-11.63;90.94
49835;BME280;35729;52.090;13.162;2022-12-15T05:19:23;100198.03;;;-11.57;91.23
49835;BME280;35729;52.090;13.162;2022-12-15T05:22:03;100188.72;;;-11.58;91.38
49835;BME280;35729;52.090;13.162;2022-12-15T05:24:44;100202.59;;;-11.52;91.06
49835;BME280;35729;52.090;13.162;2022-12-15T05:27:25;100194.28;;;-11.49;91.43
49835;BME280;35729;52.090;13.162;2022-12-15T05:30:10;100197.97;;;-11.44;91.36
49835;BME280;35729;52.090;13.162;2022-12-15T05:32:50;100209.22;;;-11.39;91.61
49835;BME280;35729;52.090;13.162;2022-12-15T05:35:19;100211.84;;;-11.37;92.32
49835;BME280;35729;52.090;13.162;2022-12-15T05:37:47;100211.13;;;-11.35;91.86
49835;BME280;35729;52.090;13.162;2022-12-15T05:40:16;100207.13;;;-11.31;91.90
49835;BME280;35729;52.090;13.162;2022-12-15T05:42:44;100208.97;;;-11.28;91.59
49835;BME280;35729;52.090;13.162;2022-12-15T05:45:15;100213.31;;;-11.26;91.85
49835;BME280;35729;52.090;13.162;2022-12-15T05:47:49;100208.44;;;-11.23;91.47
49835;BME280;35729;52.090;13.162;2022-12-15T05:50:18;100210.28;;;-11.20;91.46
49835;BME280;35729;52.090;13.162;2022-12-15T05:52:47;100206.19;;;-11.18;91.24
49835;BME280;35729;52.090;13.162;2022-12-15T05:55:16;100206.34;;;-11.15;91.28
49835;BME280;35729;52.090;13.162;2022-12-15T05:57:49;100209.03;;;-11.12;91.20
49835;BME280;35729;52.090;13.162;2022-12-15T06:00:21;100214.31;;;-11.09;91.11
49835;BME280;35729;52.090;13.162;2022-12-15T06:02:50;100218.59;;;-11.08;90.86
49835;BME280;35729;52.090;13.162;2022-12-15T06:05:18;100196.56;;;-11.09;90.91
49835;BME280;35729;52.090;13.162;2022-12-15T06:07:47;100208.63;;;-11.05;91.14
49835;BME280;35729;52.090;13.162;2022-12-15T06:10:16;100220.56;;;-11.02;90.64
49835;BME280;35729;52.090;13.162;2022-12-15T06:12:44;100220.56;;;-11.02;90.82
49835;BME280;35729;52.090;13.162;2022-12-15T06:15:13;100230.78;;;-11.01;90.87
49835;BME280;35729;52.090;13.162;2022-12-15T06:17:44;100240.16;;;-11.00;90.97
49835;BME280;35729;52.090;13.162;2022-12-15T06:20:13;100239.28;;;-11.00;90.94
49835;BME280;35729;52.090;13.162;2022-12-15T06:22:41;100238.41;;;-11.01;90.97
49835;BME280;35729;52.090;13.162;2022-12-15T06:25:10;100243.47;;;-11.01;90.58
49835;BME280;35729;52.090;13.162;2022-12-15T06:27:38;100240.94;;;-11.01;90.87
49835;BME280;35729;52.090;13.162;2022-12-15T06:30:08;100246.09;;;-10.99;90.86
49835;BME280;35729;52.090;13.162;2022-12-15T06:32:36;100247.81;;;-10.98;90.79
49835;BME280;35729;52.090;13.162;2022-12-15T06:35:08;100263.16;;;-10.97;90.84
49835;BME280;35729;52.090;13.162;2022-12-15T06:37:36;100264.00;;;-10.96;90.92
49835;BME280;35729;52.090;13.162;2022-12-15T06:40:06;100256.25;;;-10.99;91.10
49835;BME280;35729;52.090;13.162;2022-12-15T06:42:35;100266.63;;;-10.94;90.97
49835;BME280;35729;52.090;13.162;2022-12-15T06:45:04;100265.75;;;-10.95;90.95
49835;BME280;35729;52.090;13.162;2022-12-15T06:47:33;100275.97;;;-10.93;91.27
49835;BME280;35729;52.090;13.162;2022-12-15T06:50:02;100271.59;;;-10.96;91.21
49835;BME280;35729;52.090;13.162;2022-12-15T06:52:34;100281.13;;;-10.92;91.32
49835;BME280;35729;52.090;13.162;2022-12-15T06:55:04;100284.56;;;-10.91;91.11
49835;BME280;35729;52.090;13.162;2022-12-15T06:57:35;100291.38;;;-10.90;91.06
49835;BME280;35729;52.090;13.162;2022-12-15T07:00:05;100289.78;;;-10.88;91.22
49835;BME280;35729;52.090;13.162;2022-12-15T07:02:33;100288.13;;;-10.88;91.29
49835;BME280;35729;52.090;13.162;2022-12-15T07:05:02;100289.06;;;-10.86;91.21
49835;BME280;35729;52.090;13.162;2022-12-15T07:07:30;100292.50;;;-10.85;91.23
49835;BME280;35729;52.090;13.162;2022-12-15T07:10:02;100299.28;;;-10.84;91.19
49835;BME280;35729;52.090;13.162;2022-12-15T07:12:30;100301.66;;;-10.87;91.00
49835;BME280;35729;52.090;13.162;2022-12-15T07:14:59;100303.59;;;-10.83;91.16
49835;BME280;35729;52.090;13.162;2022-12-15T07:17:28;100303.59;;;-10.83;90.99
49835;BME280;35729;52.090;13.162;2022-12-15T07:19:56;100305.34;;;-10.82;91.01
49835;BME280;35729;52.090;13.162;2022-12-15T07:22:26;100311.25;;;-10.82;91.21
49835;BME280;35729;52.090;13.162;2022-12-15T07:24:55;100315.56;;;-10.81;91.12
49835;BME280;35729;52.090;13.162;2022-12-15T07:27:26;100318.09;;;-10.81;91.39
49835;BME280;35729;52.090;13.162;2022-12-15T07:29:55;100319.06;;;-10.78;91.43
49835;BME280;35729;52.090;13.162;2022-12-15T07:32:23;100324.22;;;-10.77;91.57
49835;BME280;35729;52.090;13.162;2022-12-15T07:34:51;100322.72;;;-10.73;91.87
49835;BME280;35729;52.090;13.162;2022-12-15T07:37:20;100330.41;;;-10.72;91.89
49835;BME280;35729;52.090;13.162;2022-12-15T07:39:49;100339.78;;;-10.71;91.63
49835;BME280;35729;52.090;13.162;2022-12-15T07:42:17;100336.53;;;-10.68;91.38
49835;BME280;35729;52.090;13.162;2022-12-15T07:44:48;100324.56;;;-10.71;91.41
49835;BME280;35729;52.090;13.162;2022-12-15T07:47:17;100339.34;;;-10.63;91.70
49835;BME280;35729;52.090;13.162;2022-12-15T07:49:45;100344.50;;;-10.62;91.49
49835;BME280;35729;52.090;13.162;2022-12-15T07:52:14;100347.91;;;-10.61;91.49
49835;BME280;35729;52.090;13.162;2022-12-15T07:54:42;100354.72;;;-10.60;91.58
49835;BME280;35729;52.090;13.162;2022-12-15T07:57:11;100349.72;;;-10.59;91.69
49835;BME280;35729;52.090;13.162;2022-12-15T07:59:40;100355.69;;;-10.58;92.39
49835;BME280;35729;52.090;13.162;2022-12-15T08:02:12;100355.00;;;-10.56;92.20
49835;BME280;35729;52.090;13.162;2022-12-15T08:04:41;100354.22;;;-10.55;92.18
49835;BME280;35729;52.090;13.162;2022-12-15T08:07:21;100359.53;;;-10.50;91.94
49835;BME280;35729;52.090;13.162;2022-12-15T08:09:50;100360.56;;;-10.46;91.96
49835;BME280;35729;52.090;13.162;2022-12-15T08:12:19;100365.84;;;-10.43;91.83
49835;BME280;35729;52.090;13.162;2022-12-15T08:14:47;100368.44;;;-10.42;92.02
49835;BME280;35729;52.090;13.162;2022-12-15T08:17:19;100371.16;;;-10.39;91.88
49835;BME280;35729;52.090;13.162;2022-12-15T08:19:48;100381.50;;;-10.36;91.98
49835;BME280;35729;52.090;13.162;2022-12-15T08:22:16;100379.00;;;-10.34;91.99
49835;BME280;35729;52.090;13.162;2022-12-15T08:24:44;100376.72;;;-10.29;92.05
49835;BME280;35729;52.090;13.162;2022-12-15T08:27:13;100379.41;;;-10.26;92.09
49835;BME280;35729;52.090;13.162;2022-12-15T08:29:41;100391.47;;;-10.22;92.00
49835;BME280;35729;52.090;13.162;2022-12-15T08:32:10;100390.00;;;-10.19;92.05
49835;BME280;35729;52.090;13.162;2022-12-15T08:34:41;100390.19;;;-10.16;91.75
49835;BME280;35729;52.090;13.162;2022-12-15T08:37:11;100389.47;;;-10.13;91.69
49835;BME280;35729;52.090;13.162;2022-12-15T08:39:40;100381.16;;;-10.10;91.79
49835;BME280;35729;52.090;13.162;2022-12-15T08:42:08;100381.31;;;-10.07;91.56
49835;BME280;35729;52.090;13.162;2022-12-15T08:44:37;100384.91;;;-10.04;91.66
49835;BME280;35729;52.090;13.162;2022-12-15T08:47:05;100383.41;;;-10.00;91.66
49835;BME280;35729;52.090;13.162;2022-12-15T08:49:34;100391.28;;;-9.95;91.67
49835;BME280;35729;52.090;13.162;2022-12-15T08:52:05;100393.97;;;-9.92;91.60
49835;BME280;35729;52.090;13.162;2022-12-15T08:54:33;100400.09;;;-9.89;91.66
49835;BME280;35729;52.090;13.162;2022-12-15T08:57:02;100411.38;;;-9.84;91.70
49835;BME280;35729;52.090;13.162;2022-12-15T08:59:30;100420.91;;;-9.79;91.79
49835;BME280;35729;52.090;13.162;2022-12-15T09:01:59;100410.16;;;-9.75;91.76
49835;BME280;35729;52.090;13.162;2022-12-15T09:04:27;100413.56;;;-9.75;91.73
49835;BME280;35729;52.090;13.162;2022-12-15T09:06:56;100417.41;;;-9.67;91.79
49835;BME280;35729;52.090;13.162;2022-12-15T09:09:27;100419.38;;;-9.61;91.61
49835;BME280;35729;52.090;13.162;2022-12-15T09:11:55;100405.97;;;-9.58;91.73
49835;BME280;35729;52.090;13.162;2022-12-15T09:14:24;100407.09;;;-9.53;91.54
49835;BME280;35729;52.090;13.162;2022-12-15T09:16:52;100411.66;;;-9.47;91.66
49835;BME280;35729;52.090;13.162;2022-12-15T09:19:21;100408.41;;;-9.45;91.71
49835;BME280;35729;52.090;13.162;2022-12-15T09:21:49;100406.19;;;-9.39;91.59
49835;BME280;35729;52.090;13.162;2022-12-15T09:24:18;100404.75;;;-9.34;91.83
49835;BME280;35729;52.090;13.162;2022-12-15T09:26:49;100401.66;;;-9.28;91.65
49835;BME280;35729;52.090;13.162;2022-12-15T09:29:17;100403.66;;;-9.22;91.65
49835;BME280;35729;52.090;13.162;2022-12-15T09:31:46;100405.56;;;-9.18;91.79
49835;BME280;35729;52.090;13.162;2022-12-15T09:34:14;100405.88;;;-9.12;91.85
49835;BME280;35729;52.090;13.162;2022-12-15T09:36:43;100406.19;;;-9.06;91.87
49835;BME280;35729;52.090;13.162;2022-12-15T09:39:11;100408.16;;;-9.00;91.79
49835;BME280;35729;52.090;13.162;2022-12-15T09:41:51;100409.34;;;-8.93;91.68
49835;BME280;35729;52.090;13.162;2022-12-15T09:44:23;100408.00;;;-8.87;91.78
49835;BME280;35729;52.090;13.162;2022-12-15T09:46:59;100401.50;;;-8.81;91.79
49835;BME280;35729;52.090;13.162;2022-12-15T09:49:39;100403.47;;;-8.76;91.85
49835;BME280;35729;52.090;13.162;2022-12-15T09:52:13;100410.59;;;-8.69;91.79
49835;BME280;35729;52.090;13.162;2022-12-15T09:54:42;100412.69;;;-8.61;91.86
49835;BME280;35729;52.090;13.162;2022-12-15T09:57:22;100414.75;;;-8.54;91.90
49835;BME280;35729;52.090;13.162;2022-12-15T10:00:08;100412.47;;;-8.48;91.85
49835;BME280;35729;52.090;13.162;2022-12-15T10:06:05;100409.56;;;-8.38;91.69
49835;BME280;35729;52.090;13.162;2022-12-15T10:08:36;100407.47;;;-8.28;91.74
49835;BME280;35729;52.090;13.162;2022-12-15T10:11:17;100413.78;;;-8.20;91.89
49835;BME280;35729;52.090;13.162;2022-12-15T10:13:51;100413.38;;;-8.11;91.96
49835;BME280;35729;52.090;13.162;2022-12-15T10:16:25;100405.22;;;-8.04;91.86
49835;BME280;35729;52.090;13.162;2022-12-15T10:19:06;100405.75;;;-7.93;91.78
49835;BME280;35729;52.090;13.162;2022-12-15T10:21:35;100411.34;;;-7.82;92.01
49835;BME280;35729;52.090;13.162;2022-12-15T10:24:14;100414.41;;;-7.72;91.92
49835;BME280;35729;52.090;13.162;2022-12-15T10:26:48;100422.53;;;-7.61;92.02
49835;BME280;35729;52.090;13.162;2022-12-15T10:29:32;100422.19;;;-7.50;91.71
49835;BME280;35729;52.090;13.162;2022-12-15T10:32:11;100416.75;;;-7.39;91.86
49835;BME280;35729;52.090;13.162;2022-12-15T10:34:42;100409.38;;;-7.32;91.87
49835;BME280;35729;52.090;13.162;2022-12-15T10:37:13;100415.22;;;-7.15;92.09
49835;BME280;35729;52.090;13.162;2022-12-15T10:39:45;100420.75;;;-7.06;91.89
49835;BME280;35729;52.090;13.162;2022-12-15T10:42:16;100423.69;;;-6.97;91.69
49835;BME280;35729;52.090;13.162;2022-12-15T10:44:49;100417.28;;;-6.89;91.68
49835;BME280;35729;52.090;13.162;2022-12-15T10:47:23;100418.44;;;-6.80;91.46
49835;BME280;35729;52.090;13.162;2022-12-15T10:49:54;100420.53;;;-6.72;91.32
49835;BME280;35729;52.090;13.162;2022-12-15T10:52:26;100420.78;;;-6.65;91.31
49835;BME280;35729;52.090;13.162;2022-12-15T10:54:58;100417.44;;;-6.64;91.27
49835;BME280;35729;52.090;13.162;2022-12-15T10:57:29;100429.72;;;-6.56;90.99
49835;BME280;35729;52.090;13.162;2022-12-15T11:00:24;100432.38;;;-6.52;91.22
49835;BME280;35729;52.090;13.162;2022-12-15T11:02:54;100430.78;;;-6.50;91.14
49835;BME280;35729;52.090;13.162;2022-12-15T11:05:23;100431.06;;;-6.44;90.98
49835;BME280;35729;52.090;13.162;2022-12-15T11:07:53;100424.31;;;-6.42;91.09
49835;BME280;35729;52.090;13.162;2022-12-15T11:10:24;100422.75;;;-6.39;91.34
49835;BME280;35729;52.090;13.162;2022-12-15T11:13:14;100421.28;;;-6.33;91.29
49835;BME280;35729;52.090;13.162;2022-12-15T11:15:45;100421.53;;;-6.27;91.30
49835;BME280;35729;52.090;13.162;2022-12-15T11:18:17;100422.47;;;-6.25;90.83
49835;BME280;35729;52.090;13.162;2022-12-15T11:20:52;100420.03;;;-6.22;91.08
49835;BME280;35729;52.090;13.162;2022-12-15T11:23:31;100430.38;;;-6.19;91.21
49835;BME280;35729;52.090;13.162;2022-12-15T11:26:05;100426.19;;;-6.17;90.94
49835;BME280;35729;52.090;13.162;2022-12-15T11:28:42;100433.19;;;-6.13;91.13
49835;BME280;35729;52.090;13.162;2022-12-15T11:31:23;100438.47;;;-6.08;91.07
49835;BME280;35729;52.090;13.162;2022-12-15T11:33:54;100440.41;;;-6.02;91.00
49835;BME280;35729;52.090;13.162;2022-12-15T11:36:37;100443.97;;;-5.99;91.13
49835;BME280;35729;52.090;13.162;2022-12-15T11:39:19;100444.09;;;-5.94;90.78
49835;BME280;35729;52.090;13.162;2022-12-15T11:41:57;100446.09;;;-5.87;91.06
49835;BME280;35729;52.090;13.162;2022-12-15T11:44:39;100456.69;;;-5.78;91.25
49835;BME280;35729;52.090;13.162;2022-12-15T11:47:20;100458.66;;;-5.70;90.96
49835;BME280;35729;52.090;13.162;2022-12-15T11:50:06;100456.47;;;-5.61;91.13
49835;BME280;35729;52.090;13.162;2022-12-15T11:52:56;100460.25;;;-5.51;90.89
49835;BME280;35729;52.090;13.162;2022-12-15T11:55:39;100451.13;;;-5.45;91.06
49835;BME280;35729;52.090;13.162;2022-12-15T12:01:30;100448.47;;;-5.25;90.72
49835;BME280;35729;52.090;13.162;2022-12-15T12:04:13;100454.72;;;-5.17;90.41
49835;BME280;35729;52.090;13.162;2022-12-15T12:06:51;100454.00;;;-5.14;90.33
49835;BME280;35729;52.090;13.162;2022-12-15T12:09:29;100449.84;;;-5.11;90.57
49835;BME280;35729;52.090;13.162;2022-12-15T12:12:08;100446.63;;;-5.07;90.27
49835;BME280;35729;52.090;13.162;2022-12-15T12:14:47;100454.38;;;-5.03;90.58
49835;BME280;35729;52.090;13.162;2022-12-15T12:17:20;100458.78;;;-4.99;90.62
49835;BME280;35729;52.090;13.162;2022-12-15T12:19:57;100454.72;;;-4.94;90.50
49835;BME280;35729;52.090;13.162;2022-12-15T12:22:29;100448.84;;;-4.92;90.49
49835;BME280;35729;52.090;13.162;2022-12-15T12:25:03;100446.44;;;-4.87;90.30
49835;BME280;35729;52.090;13.162;2022-12-15T12:27:36;100449.13;;;-4.84;90.44
49835;BME280;35729;52.090;13.162;2022-12-15T12:30:12;100437.97;;;-4.86;90.56
49835;BME280;35729;52.090;13.162;2022-12-15T12:32:45;100449.34;;;-4.78;90.33
49835;BME280;35729;52.090;13.162;2022-12-15T12:35:24;100450.25;;;-4.76;90.26
49835;BME280;35729;52.090;13.162;2022-12-15T12:37:58;100450.38;;;-4.72;90.05
49835;BME280;35729;52.090;13.162;2022-12-15T12:40:35;100453.84;;;-4.70;90.02
49835;BME280;35729;52.090;13.162;2022-12-15T12:43:11;100450.59;;;-4.66;90.07
49835;BME280;35729;52.090;13.162;2022-12-15T12:45:50;100447.28;;;-4.64;89.90
49835;BME280;35729;52.090;13.162;2022-12-15T12:48:26;100448.25;;;-4.60;90.18
49835;BME280;35729;52.090;13.162;2022-12-15T12:51:12;100440.69;;;-4.57;90.00
49835;BME280;35729;52.090;13.162;2022-12-15T12:53:44;100442.53;;;-4.53;90.13
49835;BME280;35729;52.090;13.162;2022-12-15T12:56:35;100436.69;;;-4.49;90.06
49835;BME280;35729;52.090;13.162;2022-12-15T12:59:36;100436.84;;;-4.44;90.01
49835;BME280;35729;52.090;13.162;2022-12-15T13:05:23;100433.00;;;-4.31;90.17
49835;BME280;35729;52.090;13.162;2022-12-15T13:08:25;100426.41;;;-4.24;90.30
49835;BME280;35729;52.090;13.162;2022-12-15T13:10:54;100429.28;;;-4.15;90.10
49835;BME280;35729;52.090;13.162;2022-12-15T13:13:40;100429.53;;;-4.07;89.79
49835;BME280;35729;52.090;13.162;2022-12-15T13:16:17;100421.91;;;-4.04;89.82
49835;BME280;35729;52.090;13.162;2022-12-15T13:18:57;100424.03;;;-3.93;89.66
49835;BME280;35729;52.090;13.162;2022-12-15T13:21:51;100421.00;;;-3.79;89.99
49835;BME280;35729;52.090;13.162;2022-12-15T13:24:33;100421.53;;;-3.62;90.15